• Join FlightAware (Why Join?)
  • Login
  • US Flag 
06:27AM EDT


 

Airport Tracker/Info


-or-


 

Live Flight TrackerFlight Track Log ✈ NKS231 ✈ 03-May-2012 ✈ KATL - KFLL

Flight Track Log - Related Links

Times and Time Zones

All times are in EDT time to prevent confusion due to time zone crossing. See the NKS231 flight status page for this flight to view local times or setup timezone preferences in your user account.

Time Position Orientation Groundspeed Altitude Reporting Facility
EDT Latitude Longitude Course Direction KTS MPH feet Rate Location/Type
06:54AM 33.6333 -84.3833 90° East 171 197 2,500  Level Atlanta TRACON
06:55AM 33.6333 -84.3333 129° Southeast 212 244 3,700 1,980 Climbing Atlanta TRACON
06:56AM 33.6000 -84.2833 168° South 276 318 6,300 3,060 Climbing Atlanta TRACON
06:57AM 33.5333 -84.2667 193° South 271 312 9,600 2,400 Climbing Atlanta TRACON
06:59AM 33.3222 -84.3272 193° South 329 379 14,400 2,100 Climbing Atlanta Center
07:00AM 33.2281 -84.3542 193° South 348 400 16,900 2,100 Climbing Atlanta Center
07:01AM 33.1281 -84.3811 192° South 362 417 18,600 1,800 Climbing Atlanta Center
07:02AM 33.0214 -84.4081 187° South 377 434 20,600 1,800 Climbing Atlanta Center
07:03AM 32.9003 -84.4247 179° South 393 452 22,300 1,560 Climbing Atlanta Center
07:04AM 32.7833 -84.4217 179° South 398 458 23,800 1,620 Climbing Atlanta Center
07:05AM 32.6686 -84.4189 179° South 411 473 25,600 1,500 Climbing Atlanta Center
07:06AM 32.5475 -84.4158 180° South 421 484 26,800 1,140 Climbing Atlanta Center
07:07AM 32.4222 -84.4153 179° South 432 497 27,900 1,020 Climbing Atlanta Center
07:08AM 32.2969 -84.4122 178° South 444 511 28,900 1,020 Climbing Atlanta Center
07:10AM 32.0636 -84.4050 179° South 493 567 30,900 1,320 Climbing Jacksonville Center
07:11AM 31.9383 -84.4031 178° South 486 559 32,800 1,320 Climbing Jacksonville Center
07:12AM 31.8111 -84.3986 180° South 464 534 33,600 900 Climbing Jacksonville Center
07:13AM 31.6817 -84.3989 178° South 459 528 34,600 1,200 Climbing Jacksonville Center
07:14AM 31.5564 -84.3944 179° South 459 528 36,100 1,080 Climbing Jacksonville Center
07:15AM 31.4331 -84.3925 164° South 454 522 36,800 420 Climbing Jacksonville Center
07:16AM 31.3147 -84.3517 154° Southeast 446 513 37,000 60 Climbing Jacksonville Center
07:17AM 31.1986 -84.2842 154° Southeast 456 525 37,000  Level Jacksonville Center
07:18AM 31.0822 -84.2169 155° Southeast 456 525 37,000  Level Jacksonville Center
07:19AM 30.9661 -84.1525 153° Southeast 462 532 37,000  Level Jacksonville Center
07:20AM 30.8519 -84.0856 155° Southeast 462 532 37,000  Level Jacksonville Center
07:21AM 30.7356 -84.0236 153° Southeast 462 532 37,000  Level Jacksonville Center
07:22AM 30.6211 -83.9572 154° Southeast 462 532 37,000 -60 Level Jacksonville Center
07:23AM 30.5089 -83.8931 156° South 457 526 36,900 -60 Descending Jacksonville Center
07:24AM 30.3925 -83.8317 155° Southeast 457 526 36,900  Level Jacksonville Center
07:25AM 30.2761 -83.7681 153° Southeast 463 533 36,900  Level Jacksonville Center
07:26AM 30.1594 -83.6997 155° Southeast 463 533 37,000  Climbing Jacksonville Center
07:27AM 30.0408 -83.6364 155° Southeast 463 533 37,000 -60 Level Jacksonville Center
07:28AM 29.9244 -83.5733 154° Southeast 463 533 36,900 -60 Descending Jacksonville Center
07:30AM 29.7369 -83.4689 155° Southeast 463 533 36,900  Level Jacksonville Center
07:31AM 29.6203 -83.4061 154° Southeast 463 533 36,900  Level Jacksonville Center
07:32AM 29.4892 -83.3339 155° Southeast 468 539 36,900  Level Jacksonville Center
07:33AM 29.3725 -83.2714 154° Southeast 468 539 37,000  Climbing Jacksonville Center
07:34AM 29.2536 -83.2044 155° Southeast 468 539 36,900 -60 Descending Jacksonville Center
07:35AM 29.1347 -83.1422 154° Southeast 462 532 36,900  Level Jacksonville Center
07:36AM 29.0158 -83.0756 155° Southeast 462 532 36,900  Level Jacksonville Center
07:37AM 28.8950 -83.0111 154° Southeast 462 532 37,000  Climbing Jacksonville Center
07:38AM 28.7781 -82.9469 156° South 462 532 36,900 -60 Descending Jacksonville Center
07:39AM 28.6653 -82.8903 154° Southeast 462 532 36,900  Level Jacksonville Center
07:40AM 28.5486 -82.8264 155° Southeast 462 532 36,900  Level Jacksonville Center
07:41AM 28.4317 -82.7650 155° Southeast 462 532 36,900  Level Jacksonville Center
07:42AM 28.3106 -82.7017 154° Southeast 462 532 36,900  Level Jacksonville Center
07:43AM 28.1956 -82.6383 155° Southeast 462 532 36,900  Level Jacksonville Center
07:44AM 28.0869 -82.5797 154° Southeast 468 539 37,000  Climbing Jacksonville Center
07:45AM 27.9989 -82.5303 161° South 470 541 36,900 -60 Descending Miami Center
07:46AM 27.8858 -82.4872 161° South 463 533 36,900  Level Miami Center
07:47AM 27.7644 -82.4389 153° Southeast 463 533 37,000  Climbing Miami Center
07:48AM 27.6381 -82.3672 149° Southeast 463 533 37,000  Level Miami Center
07:49AM 27.5261 -82.2917 148° Southeast 468 539 37,000 -180 Level Miami Center
07:50AM 27.4244 -82.2214 148° Southeast 477 549 36,700 -660 Descending Miami Center
07:51AM 27.3083 -82.1411 149° Southeast 482 555 35,700 -1,020 Descending Miami Center
07:52AM 27.1842 -82.0583 149° Southeast 482 555 34,700 -1,020 Descending Miami Center
07:53AM 27.0639 -81.9761 136° Southeast 487 560 33,700 -900 Descending Miami Center
07:54AM 26.9611 -81.8667 138° Southeast 499 574 32,900 -780 Descending Miami Center
07:55AM 26.8603 -81.7647 136° Southeast 499 574 32,200 -2,100 Descending Miami Center
07:56AM 26.7594 -81.6558 135° Southeast 499 574 28,800 -3,660 Descending Miami Center
07:57AM 26.6689 -81.5544 139° Southeast 477 549 24,900 -3,600 Descending Miami Center
07:58AM 26.5758 -81.4625 136° Southeast 456 525 21,600 -3,420 Descending Miami Center
07:59AM 26.5031 -81.3831 137° Southeast 423 487 18,100 -3,420 Descending Miami Center
08:00AM 26.4122 -81.2892 136° Southeast 410 472 14,800 -2,820 Descending Miami Center
08:01AM 26.3414 -81.2125 138° Southeast 383 441 12,500 -2,100 Descending Miami Center
08:02AM 26.2683 -81.1381 138° Southeast 367 422 10,700 -1,320 Descending Miami Center
08:03AM 26.2014 -81.0708 134° Southeast 344 396 9,900 -960 Descending Miami Center
08:04AM 26.1467 -81.0086 105° East 315 362 8,800 -1,260 Descending Miami Center
08:05AM 26.1261 -80.9247 105° East 270 311 7,400 -1,440 Descending Miami Center
08:06AM 26.1075 -80.8453 105° East 264 304 6,000 -780 Descending Miami Center
08:07AM 26.0886 -80.7661 98° East 264 304 5,900 -60 Descending Miami Center
08:08AM 26.0783 -80.6872 90° East 264 304 5,900  Level Miami Center
08:09AM 26.0783 -80.6061 92° East 259 298 5,900  Level Miami Center
08:10AM 26.0758 -80.5367 90° East 239 275 5,900 -360 Level Miami Center
08:11AM 26.0756 -80.4697 90° East 226 260 5,200 -1,080 Descending Miami Center
08:12AM 26.0758 -80.3681 91° East 224 258 3,300 -1,200 Descending Miami Center
08:13AM 26.0753 -80.3008 91° East 182 209 2,200 -900 Descending Miami Center
08:14AM 26.0744 -80.2522 88° East 150 173 1,500 -780 Descending Miami Center
08:15AM 26.0753 -80.2175 88° East 127 146 800 -780 Descending Miami Center